Time;durP1;ratioP1;P1;durP2;ratioP2;P2;SDS_P1;SDS_P2;PMS_P1;PMS_P2;Temp;Humidity;BMP_temperature;BMP_pressure;BME280_temperature;BME280_humidity;BME280_pressure;Samples;Min_cycle;Max_cycle;Signal;HPM_P1;HPM_P2
2023/03/31 00:00:16;;;;;;;;;;;;;;;;;;1032697;28;4054;-56
2023/03/31 00:01:06;;;;;;;;;;;;;;;;;;1035259;28;4413;-56
2023/03/31 00:01:42;;;;;;;;;;;;;;;;;;1034074;28;2469;-57
2023/03/31 00:02:13;;;;;;;;;;;;;;;;;;1033383;28;4018;-55
2023/03/31 00:02:44;;;;;;;;;;;;;;;;;;1035417;28;1861;-56
2023/03/31 00:03:20;;;;;;;;;;;;;;;;;;1035364;28;4053;-56
2023/03/31 00:03:50;;;;;;;;;;;;;;;;;;1034217;28;2727;-57
2023/03/31 00:04:22;;;;;;;;;;;;;;;;;;1035332;28;4049;-53
2023/03/31 00:04:53;;;;;;;;;;;;;;;;;;1034961;28;1868;-54
2023/03/31 00:05:26;;;;;;;;;;;;;;;;;;1033985;28;3998;-56
2023/03/31 00:05:57;;;;;;;;;;;;;;;;;;1035000;28;1656;-57
2023/03/31 00:06:28;;;;;;;;;;;;;;;;;;1034174;28;3976;-56
2023/03/31 00:06:58;;;;;;;;;;;;;;;;;;1034893;28;1814;-58
2023/03/31 00:07:29;;;;;;;;;;;;;;;;;;1035431;28;4009;-58
2023/03/31 00:08:02;;;;;;;;;;;;;;;;;;1035904;28;2802;-57
2023/03/31 00:08:36;;;;;;;;;;;;;;;;;;1034901;28;3941;-56
2023/03/31 00:09:08;;;;;;;;;;;;;;;;;;1035719;28;4087;-57
2023/03/31 00:09:40;;;;;;;;;;;;;;;;;;1034196;28;1413;-53
2023/03/31 00:10:11;;;;;;;;;;;;;;;;;;1033689;28;4062;-55
2023/03/31 00:10:45;;;;;;;;;;;;;;;;;;1030171;28;2924;-56
2023/03/31 00:11:15;;;;;;;;;;;;;;;;;;1029792;28;3899;-55
2023/03/31 00:11:46;;;;;;;;;;;;;;;;;;1034931;28;2752;-54
2023/03/31 00:12:16;;;;;;;;;;;;;;;;;;1035267;28;3876;-55
2023/03/31 00:12:46;;;;;;;;;;;;;;;;;;1033957;28;2774;-54
2023/03/31 00:13:17;;;;;;;;;;;;;;;;;;1032507;28;4023;-54
2023/03/31 00:13:47;;;;;;;;;;;;;;;;;;1035052;28;1671;-52
2023/03/31 00:14:18;;;;;;;;;;;;;;;;;;1035567;28;3906;-56
2023/03/31 00:14:48;;;;;;;;;;;;;;;;;;1035246;28;1941;-57
2023/03/31 00:15:19;;;;;;;;;;;;;;;;;;1035155;28;4058;-54
2023/03/31 00:15:54;;;;;;;;;;;;;;;;;;1035466;28;1718;-56
2023/03/31 00:16:25;;;;;;;;;;;;;;;;;;1033948;28;3916;-55
2023/03/31 00:16:57;;;;;;;;;;;;;;;;;;1034583;28;1837;-58
2023/03/31 00:17:27;;;;;;;;;;;;;;;;;;1034046;28;3871;-52
2023/03/31 00:17:59;;;;;;;;;;;;;;;;;;1034444;28;2842;-57
2023/03/31 00:18:29;;;;;;;;;;;;;;;;;;1036598;28;3979;-56
2023/03/31 00:19:00;;;;;;;;;;;;;;;;;;1035305;28;1898;-54
2023/03/31 00:19:32;;;;;;;;;;;;;;;;;;1034789;28;4162;-56
2023/03/31 00:20:04;;;;;;;;;;;;;;;;;;1035319;28;1986;-52
2023/03/31 00:20:36;;;;;;;;;;;;;;;;;;1033109;28;3818;-57
2023/03/31 00:21:13;;;;;;;;;;;;;;;;;;1034061;28;4096;-52
2023/03/31 00:21:43;;;;;;;;;;;;;;;;;;1035617;28;1773;-55
2023/03/31 00:22:17;;;;;;;;;;;;;;;;;;1035288;28;4013;-53
2023/03/31 00:22:47;;;;;;;;;;;;;;;;;;1035103;28;1335;-57
2023/03/31 00:23:26;;;;;;;;;;;;;;;;;;1032800;28;3901;-54
2023/03/31 00:24:01;;;;;;;;;;;;;;;;;;1035765;28;3041;-56
2023/03/31 00:24:31;;;;;;;;;;;;;;;;;;1034803;28;3950;-53
2023/03/31 00:25:02;;;;;;;;;;;;;;;;;;1035760;28;2657;-56
2023/03/31 00:25:32;;;;;;;;;;;;;;;;;;1033402;28;3950;-55
2023/03/31 00:26:02;;;;;;;;;;;;;;;;;;1032904;28;3094;-57
2023/03/31 00:26:33;;;;;;;;;;;;;;;;;;1035722;28;3826;-58
2023/03/31 00:27:04;;;;;;;;;;;;;;;;;;1034563;28;4028;-53
2023/03/31 00:27:35;;;;;;;;;;;;;;;;;;1033423;28;2809;-57
2023/03/31 00:28:05;;;;;;;;;;;;;;;;;;1033443;28;4153;-59
2023/03/31 00:28:35;;;;;;;;;;;;;;;;;;1034270;28;1860;-55
2023/03/31 00:29:07;;;;;;;;;;;;;;;;;;1034300;28;3811;-58
2023/03/31 00:29:40;;;;;;;;;;;;;;;;;;1033063;28;2626;-55
2023/03/31 00:30:12;;;;;;;;;;;;;;;;;;1032367;28;4057;-54
2023/03/31 00:30:42;;;;;;;;;;;;;;;;;;1035250;28;1960;-57
2023/03/31 00:31:12;;;;;;;;;;;;;;;;;;1034570;28;3992;-56
2023/03/31 00:31:42;;;;;;;;;;;;;;;;;;1035502;28;1875;-54
2023/03/31 00:32:13;;;;;;;;;;;;;;;;;;1035061;28;4016;-53
2023/03/31 00:32:43;;;;;;;;;;;;;;;;;;1035222;28;1848;-56
2023/03/31 00:33:14;;;;;;;;;;;;;;;;;;1034522;28;4442;-56
2023/03/31 00:33:44;;;;;;;;;;;;;;;;;;1034853;28;1808;-53
2023/03/31 00:34:14;;;;;;;;;;;;;;;;;;1034922;28;4164;-57
2023/03/31 00:34:45;;;;;;;;;;;;;;;;;;1034687;28;1683;-54
2023/03/31 00:35:15;;;;;;;;;;;;;;;;;;1035553;28;3789;-53
2023/03/31 00:35:49;;;;;;;;;;;;;;;;;;1033542;28;1827;-58
2023/03/31 00:36:20;;;;;;;;;;;;;;;;;;1035788;28;4028;-56
2023/03/31 00:36:55;;;;;;;;;;;;;;;;;;1035278;28;1807;-59
2023/03/31 00:37:25;;;;;;;;;;;;;;;;;;1033941;28;4070;-53
2023/03/31 00:37:56;;;;;;;;;;;;;;;;;;1034089;28;2686;-56
2023/03/31 00:38:28;;;;;;;;;;;;;;;;;;1033217;28;3853;-56
2023/03/31 00:39:08;;;;;;;;;;;;;;;;;;1035303;28;2789;-57
2023/03/31 00:39:39;;;;;;;;;;;;;;;;;;1035226;28;3877;-58
2023/03/31 00:40:09;;;;;;;;;;;;;;;;;;1032067;28;4023;-56
2023/03/31 00:40:44;;;;;;;;;;;;;;;;;;1033277;28;1970;-56
2023/03/31 00:41:14;;;;;;;;;;;;;;;;;;1034670;28;4039;-57
2023/03/31 00:41:45;;;;;;;;;;;;;;;;;;1034653;28;2810;-56
2023/03/31 00:42:15;;;;;;;;;;;;;;;;;;1033424;28;3924;-55
2023/03/31 00:42:47;;;;;;;;;;;;;;;;;;1033396;28;2895;-57
2023/03/31 00:43:27;;;;;;;;;;;;;;;;;;1034562;28;4140;-55
2023/03/31 00:44:11;;;;;;;;;;;;;;;;;;1033705;28;2297;-55
2023/03/31 00:45:00;;;;;;;;;;;;;;;;;;1034535;28;3833;-57
2023/03/31 00:45:31;;;;;;;;;;;;;;;;;;1034238;28;4085;-53
2023/03/31 00:46:21;;;;;;;;;;;;;;;;;;1035024;28;2454;-56
2023/03/31 00:47:10;;;;;;;;;;;;;;;;;;1038926;28;3888;-53
2023/03/31 00:47:42;;;;;;;;;;;;;;;;;;1038725;28;3978;-58
2023/03/31 00:48:15;;;;;;;;;;;;;;;;;;1038363;28;4059;-56
2023/03/31 00:48:50;;;;;;;;;;;;;;;;;;1039104;28;3046;-58
2023/03/31 00:49:26;;;;;;;;;;;;;;;;;;1039473;28;4063;-55
2023/03/31 00:49:57;;;;;;;;;;;;;;;;;;1038340;28;2777;-55
2023/03/31 00:50:30;;;;;;;;;;;;;;;;;;1037391;28;4014;-52
2023/03/31 00:51:03;;;;;;;;;;;;;;;;;;1037643;28;2741;-57
2023/03/31 00:51:34;;;;;;;;;;;;;;;;;;1039348;28;4129;-56
2023/03/31 00:52:07;;;;;;;;;;;;;;;;;;1038570;28;4162;-59
2023/03/31 00:52:38;;;;;;;;;;;;;;;;;;1039812;28;2026;-59
2023/03/31 00:53:10;;;;;;;;;;;;;;;;;;1037702;28;4067;-51
2023/03/31 00:53:41;;;;;;;;;;;;;;;;;;1039677;28;1412;-53
2023/03/31 00:54:11;;;;;;;;;;;;;;;;;;1037691;28;3807;-53
2023/03/31 00:54:43;;;;;;;;;;;;;;;;;;1039036;28;1903;-57
2023/03/31 00:55:15;;;;;;;;;;;;;;;;;;1038574;28;4397;-55
2023/03/31 00:55:49;;;;;;;;;;;;;;;;;;1039712;28;1425;-58
2023/03/31 00:56:20;;;;;;;;;;;;;;;;;;1037761;28;4002;-59
2023/03/31 00:56:52;;;;;;;;;;;;;;;;;;1038390;28;1803;-51
2023/03/31 00:57:23;;;;;;;;;;;;;;;;;;1037863;28;4190;-54
2023/03/31 00:57:54;;;;;;;;;;;;;;;;;;1037568;28;1709;-56
2023/03/31 00:58:27;;;;;;;;;;;;;;;;;;1039051;28;3905;-58
2023/03/31 00:59:00;;;;;;;;;;;;;;;;;;1038498;28;2612;-53
2023/03/31 00:59:32;;;;;;;;;;;;;;;;;;1039258;28;3875;-54
2023/03/31 01:00:13;;;;;;;;;;;;;;;;;;1039835;28;3875;-56
2023/03/31 01:00:43;;;;;;;;;;;;;;;;;;1038667;28;2197;-56
2023/03/31 01:01:16;;;;;;;;;;;;;;;;;;1039419;28;4254;-53
2023/03/31 01:01:46;;;;;;;;;;;;;;;;;;1038766;28;2125;-57
2023/03/31 01:02:19;;;;;;;;;;;;;;;;;;1038990;28;3869;-56
2023/03/31 01:02:54;;;;;;;;;;;;;;;;;;1038660;28;1828;-57
2023/03/31 01:03:25;;;;;;;;;;;;;;;;;;1039152;28;3874;-57
2023/03/31 01:03:56;;;;;;;;;;;;;;;;;;1038916;28;1713;-54
2023/03/31 01:04:27;;;;;;;;;;;;;;;;;;1037758;28;4127;-55
2023/03/31 01:05:00;;;;;;;;;;;;;;;;;;1038858;28;1981;-52
2023/03/31 01:05:33;;;;;;;;;;;;;;;;;;1039311;28;3969;-53
2023/03/31 01:06:04;;;;;;;;;;;;;;;;;;1038786;28;3922;-58
2023/03/31 01:06:39;;;;;;;;;;;;;;;;;;1039688;28;1597;-56
2023/03/31 01:07:15;;;;;;;;;;;;;;;;;;1038199;28;4119;-59
2023/03/31 01:07:46;;;;;;;;;;;;;;;;;;1039731;28;1677;-55
2023/03/31 01:08:17;;;;;;;;;;;;;;;;;;1038487;28;4021;-55
2023/03/31 01:08:49;;;;;;;;;;;;;;;;;;1039252;28;1441;-55
2023/03/31 01:09:21;;;;;;;;;;;;;;;;;;1037504;28;4030;-57
2023/03/31 01:09:53;;;;;;;;;;;;;;;;;;1039297;28;1646;-57
2023/03/31 01:10:23;;;;;;;;;;;;;;;;;;1035602;28;4043;-58
2023/03/31 01:10:55;;;;;;;;;;;;;;;;;;1037375;28;2275;-51
2023/03/31 01:11:26;;;;;;;;;;;;;;;;;;1037058;28;4051;-54
2023/03/31 01:11:57;;;;;;;;;;;;;;;;;;1039289;28;1958;-55
2023/03/31 01:12:27;;;;;;;;;;;;;;;;;;1038875;28;4556;-56
2023/03/31 01:12:58;;;;;;;;;;;;;;;;;;1037177;28;3023;-55
2023/03/31 01:13:28;;;;;;;;;;;;;;;;;;1038909;28;3785;-56
2023/03/31 01:13:59;;;;;;;;;;;;;;;;;;1038374;28;2241;-56
2023/03/31 01:14:30;;;;;;;;;;;;;;;;;;1037846;28;3783;-56
2023/03/31 01:15:02;;;;;;;;;;;;;;;;;;1038599;28;2841;-55
2023/03/31 01:15:32;;;;;;;;;;;;;;;;;;1036294;28;3786;-55
2023/03/31 01:16:02;;;;;;;;;;;;;;;;;;1037506;28;2073;-53
2023/03/31 01:16:33;;;;;;;;;;;;;;;;;;1039221;28;3873;-54
2023/03/31 01:17:04;;;;;;;;;;;;;;;;;;1038956;28;3886;-56
2023/03/31 01:17:35;;;;;;;;;;;;;;;;;;1039174;28;1699;-51
2023/03/31 01:18:06;;;;;;;;;;;;;;;;;;1038417;28;3825;-53
2023/03/31 01:18:36;;;;;;;;;;;;;;;;;;1038811;28;1856;-59
2023/03/31 01:19:16;;;;;;;;;;;;;;;;;;1037225;28;4216;-54
2023/03/31 01:20:05;;;;;;;;;;;;;;;;;;1038023;28;1783;-56
2023/03/31 01:20:35;;;;;;;;;;;;;;;;;;1036018;28;3822;-54
2023/03/31 01:21:17;;;;;;;;;;;;;;;;;;1037339;28;3976;-54
2023/03/31 01:21:59;;;;;;;;;;;;;;;;;;1038588;28;1832;-57
2023/03/31 01:22:29;;;;;;;;;;;;;;;;;;1036806;28;4114;-55
2023/03/31 01:23:15;;;;;;;;;;;;;;;;;;1039579;28;2211;-57
2023/03/31 01:24:05;;;;;;;;;;;;;;;;;;1033576;28;3881;-54
2023/03/31 01:24:50;;;;;;;;;;;;;;;;;;1033535;28;3890;-56
2023/03/31 01:25:21;;;;;;;;;;;;;;;;;;1038740;28;3946;-53
2023/03/31 01:26:00;;;;;;;;;;;;;;;;;;1036502;28;2774;-55
2023/03/31 01:26:49;;;;;;;;;;;;;;;;;;1035440;28;3967;-56
2023/03/31 01:27:22;;;;;;;;;;;;;;;;;;1034632;28;3866;-54
2023/03/31 01:27:57;;;;;;;;;;;;;;;;;;1034580;28;2637;-57
2023/03/31 01:28:39;;;;;;;;;;;;;;;;;;1034955;28;4093;-58
2023/03/31 01:29:16;;;;;;;;;;;;;;;;;;1032889;28;4068;-52
2023/03/31 01:30:10;;;;;;;;;;;;;;;;;;1035637;28;1711;-54
2023/03/31 01:30:49;;;;;;;;;;;;;;;;;;1033832;28;4087;-53
2023/03/31 01:31:20;;;;;;;;;;;;;;;;;;1032127;28;4313;-56
2023/03/31 01:31:58;;;;;;;;;;;;;;;;;;1033904;28;2436;-58
2023/03/31 01:32:47;;;;;;;;;;;;;;;;;;1034104;28;4045;-54
2023/03/31 01:33:33;;;;;;;;;;;;;;;;;;1034790;28;4117;-55
2023/03/31 01:34:19;;;;;;;;;;;;;;;;;;1034897;28;4153;-55
2023/03/31 01:34:55;;;;;;;;;;;;;;;;;;1032612;28;2772;-52
2023/03/31 01:35:35;;;;;;;;;;;;;;;;;;1034831;28;3975;-59
2023/03/31 01:36:11;;;;;;;;;;;;;;;;;;1034563;28;4431;-57
2023/03/31 01:36:53;;;;;;;;;;;;;;;;;;1035298;28;1921;-57
2023/03/31 01:37:42;;;;;;;;;;;;;;;;;;1034328;28;4085;-60
2023/03/31 01:38:31;;;;;;;;;;;;;;;;;;1032711;28;3902;-55
2023/03/31 01:39:14;;;;;;;;;;;;;;;;;;1032679;28;2752;-56
2023/03/31 01:39:59;;;;;;;;;;;;;;;;;;1033593;28;3770;-55
2023/03/31 01:40:32;;;;;;;;;;;;;;;;;;1034061;28;4927;-56
2023/03/31 01:41:11;;;;;;;;;;;;;;;;;;1033535;28;4192;-56
2023/03/31 01:41:47;;;;;;;;;;;;;;;;;;1035304;28;1810;-55
2023/03/31 01:42:33;;;;;;;;;;;;;;;;;;1033327;28;4056;-56
2023/03/31 01:43:03;;;;;;;;;;;;;;;;;;1034433;28;4297;-54
2023/03/31 01:43:40;;;;;;;;;;;;;;;;;;1032313;28;2643;-57
2023/03/31 01:44:20;;;;;;;;;;;;;;;;;;1034203;28;3928;-51
2023/03/31 01:45:01;;;;;;;;;;;;;;;;;;1033701;28;2838;-57
2023/03/31 01:45:44;;;;;;;;;;;;;;;;;;1034238;28;3864;-56
2023/03/31 01:46:31;;;;;;;;;;;;;;;;;;1034698;28;3980;-53
2023/03/31 01:47:09;;;;;;;;;;;;;;;;;;1032731;28;2700;-55
2023/03/31 01:47:40;;;;;;;;;;;;;;;;;;1033454;28;3846;-52
2023/03/31 01:48:45;;;;;;;;;;;;;;;;;;1035970;28;4020;-57
2023/03/31 01:49:34;;;;;;;;;;;;;;;;;;1034386;28;4969;-56
2023/03/31 01:50:40;;;;;;;;;;;;;;;;;;1034260;28;3915;-56
2023/03/31 01:51:19;;;;;;;;;;;;;;;;;;1026571;28;4260;-55
2023/03/31 01:51:52;;;;;;;;;;;;;;;;;;1024845;28;1989;-54
2023/03/31 01:52:26;;;;;;;;;;;;;;;;;;1024746;28;3821;-50
2023/03/31 01:53:01;;;;;;;;;;;;;;;;;;1024736;28;2779;-56
2023/03/31 01:53:41;;;;;;;;;;;;;;;;;;1021244;28;3976;-55
2023/03/31 01:54:33;;;;;;;;;;;;;;;;;;1033668;28;3800;-55
2023/03/31 01:55:08;;;;;;;;;;;;;;;;;;1033117;28;4082;-56
2023/03/31 01:56:01;;;;;;;;;;;;;;;;;;1035190;28;2564;-56
2023/03/31 01:56:36;;;;;;;;;;;;;;;;;;1035785;28;4186;-55
2023/03/31 01:57:06;;;;;;;;;;;;;;;;;;1040653;28;3800;-57
2023/03/31 01:57:44;;;;;;;;;;;;;;;;;;1038121;28;2056;-54
2023/03/31 01:58:20;;;;;;;;;;;;;;;;;;1035754;28;4001;-59
2023/03/31 01:58:54;;;;;;;;;;;;;;;;;;1034107;28;2786;-56
2023/03/31 01:59:26;;;;;;;;;;;;;;;;;;1032929;28;4044;-53
2023/03/31 02:00:08;;;;;;;;;;;;;;;;;;1033774;28;2795;-57
2023/03/31 02:00:50;;;;;;;;;;;;;;;;;;1030584;28;3918;-54
2023/03/31 02:01:30;;;;;;;;;;;;;;;;;;1032877;28;4050;-58
2023/03/31 02:02:04;;;;;;;;;;;;;;;;;;1032628;28;2925;-56
2023/03/31 02:02:37;;;;;;;;;;;;;;;;;;1031589;28;5331;-53
2023/03/31 02:03:15;;;;;;;;;;;;;;;;;;1033570;28;3875;-53
2023/03/31 02:03:49;;;;;;;;;;;;;;;;;;1033326;28;2714;-57
2023/03/31 02:04:23;;;;;;;;;;;;;;;;;;1029966;28;4230;-55
2023/03/31 02:05:04;;;;;;;;;;;;;;;;;;1033110;28;2780;-56
2023/03/31 02:05:36;;;;;;;;;;;;;;;;;;1030931;28;3626;-57
2023/03/31 02:06:10;;;;;;;;;;;;;;;;;;1033253;28;3851;-57
2023/03/31 02:06:42;;;;;;;;;;;;;;;;;;1036640;28;2372;-53
2023/03/31 02:07:16;;;;;;;;;;;;;;;;;;1035491;28;4001;-55
2023/03/31 02:07:52;;;;;;;;;;;;;;;;;;1033062;28;2776;-54
2023/03/31 02:08:25;;;;;;;;;;;;;;;;;;1033659;28;3862;-57
2023/03/31 02:08:59;;;;;;;;;;;;;;;;;;1034826;28;1981;-54
2023/03/31 02:09:32;;;;;;;;;;;;;;;;;;1033196;28;4038;-57
2023/03/31 02:10:04;;;;;;;;;;;;;;;;;;1034008;28;1887;-57
2023/03/31 02:10:35;;;;;;;;;;;;;;;;;;1032356;28;3802;-58
2023/03/31 02:11:06;;;;;;;;;;;;;;;;;;1032423;28;4298;-55
2023/03/31 02:11:36;;;;;;;;;;;;;;;;;;1035064;28;3090;-55
2023/03/31 02:12:08;;;;;;;;;;;;;;;;;;1031615;28;3832;-58
2023/03/31 02:12:41;;;;;;;;;;;;;;;;;;1032572;28;3059;-55
2023/03/31 02:13:12;;;;;;;;;;;;;;;;;;1033269;28;3879;-57
2023/03/31 02:13:46;;;;;;;;;;;;;;;;;;1034710;28;2722;-56
2023/03/31 02:14:21;;;;;;;;;;;;;;;;;;1033332;28;3783;-52
2023/03/31 02:14:53;;;;;;;;;;;;;;;;;;1033163;28;2058;-53
2023/03/31 02:15:26;;;;;;;;;;;;;;;;;;1031478;28;4052;-52
2023/03/31 02:16:01;;;;;;;;;;;;;;;;;;1033269;28;2737;-55
2023/03/31 02:16:34;;;;;;;;;;;;;;;;;;1034156;28;3955;-57
2023/03/31 02:17:04;;;;;;;;;;;;;;;;;;1032127;28;3869;-55
2023/03/31 02:17:38;;;;;;;;;;;;;;;;;;1033093;28;1972;-54
2023/03/31 02:18:12;;;;;;;;;;;;;;;;;;1034177;28;4036;-58
2023/03/31 02:18:43;;;;;;;;;;;;;;;;;;1031067;28;2837;-56
2023/03/31 02:19:17;;;;;;;;;;;;;;;;;;1031092;28;4065;-55
2023/03/31 02:19:49;;;;;;;;;;;;;;;;;;1034504;28;2807;-56
2023/03/31 02:20:21;;;;;;;;;;;;;;;;;;1035181;28;3870;-53
2023/03/31 02:20:52;;;;;;;;;;;;;;;;;;1032089;28;2458;-54
2023/03/31 02:21:22;;;;;;;;;;;;;;;;;;1033536;28;4153;-57
2023/03/31 02:21:53;;;;;;;;;;;;;;;;;;1033079;28;3464;-53
2023/03/31 02:22:25;;;;;;;;;;;;;;;;;;1032524;28;3943;-59
2023/03/31 02:22:56;;;;;;;;;;;;;;;;;;1034822;28;1967;-53
2023/03/31 02:23:30;;;;;;;;;;;;;;;;;;1034741;28;3750;-55
2023/03/31 02:24:03;;;;;;;;;;;;;;;;;;1034784;28;1849;-56
2023/03/31 02:24:35;;;;;;;;;;;;;;;;;;1033739;28;3849;-52
2023/03/31 02:25:08;;;;;;;;;;;;;;;;;;1033948;28;3869;-57
2023/03/31 02:25:41;;;;;;;;;;;;;;;;;;1034923;28;2645;-56
2023/03/31 02:26:17;;;;;;;;;;;;;;;;;;1034543;28;3943;-55
2023/03/31 02:26:53;;;;;;;;;;;;;;;;;;1033744;28;2723;-58
2023/03/31 02:27:23;;;;;;;;;;;;;;;;;;1034915;28;3876;-53
2023/03/31 02:27:59;;;;;;;;;;;;;;;;;;1035504;28;1724;-56
2023/03/31 02:28:29;;;;;;;;;;;;;;;;;;1035084;28;3975;-53
2023/03/31 02:29:00;;;;;;;;;;;;;;;;;;1034218;28;1784;-54
2023/03/31 02:29:30;;;;;;;;;;;;;;;;;;1034694;28;3811;-54
2023/03/31 02:30:02;;;;;;;;;;;;;;;;;;1035367;28;2664;-55
2023/03/31 02:30:37;;;;;;;;;;;;;;;;;;1034374;28;3653;-56
2023/03/31 02:31:10;;;;;;;;;;;;;;;;;;1033929;28;4137;-55
2023/03/31 02:31:47;;;;;;;;;;;;;;;;;;1034755;28;1998;-52
2023/03/31 02:32:24;;;;;;;;;;;;;;;;;;1034361;28;4154;-56
2023/03/31 02:32:55;;;;;;;;;;;;;;;;;;1034227;28;3272;-54
2023/03/31 02:33:26;;;;;;;;;;;;;;;;;;1034389;28;4037;-55
2023/03/31 02:33:56;;;;;;;;;;;;;;;;;;1035035;28;1839;-59
2023/03/31 02:34:27;;;;;;;;;;;;;;;;;;1034583;28;4001;-58
2023/03/31 02:34:57;;;;;;;;;;;;;;;;;;1034412;28;1812;-53
2023/03/31 02:35:27;;;;;;;;;;;;;;;;;;1035278;28;3961;-55
2023/03/31 02:35:58;;;;;;;;;;;;;;;;;;1034425;28;1872;-58
2023/03/31 02:36:28;;;;;;;;;;;;;;;;;;1034972;28;3881;-53
2023/03/31 02:36:59;;;;;;;;;;;;;;;;;;1035480;28;1489;-58
2023/03/31 02:37:29;;;;;;;;;;;;;;;;;;1036758;28;4015;-53
2023/03/31 02:37:59;;;;;;;;;;;;;;;;;;1039553;28;1770;-57
2023/03/31 02:38:36;;;;;;;;;;;;;;;;;;1038535;28;4202;-53
2023/03/31 02:39:11;;;;;;;;;;;;;;;;;;1037768;28;3891;-56
2023/03/31 02:39:44;;;;;;;;;;;;;;;;;;1039572;28;1686;-56
2023/03/31 02:40:16;;;;;;;;;;;;;;;;;;1036284;28;3878;-55
2023/03/31 02:40:46;;;;;;;;;;;;;;;;;;1039025;28;1953;-53
2023/03/31 02:41:16;;;;;;;;;;;;;;;;;;1038562;28;4020;-54
2023/03/31 02:41:47;;;;;;;;;;;;;;;;;;1038926;28;1853;-53
2023/03/31 02:42:17;;;;;;;;;;;;;;;;;;1039309;28;4039;-55
2023/03/31 02:42:48;;;;;;;;;;;;;;;;;;1039076;28;1802;-54
2023/03/31 02:43:18;;;;;;;;;;;;;;;;;;1037924;28;4079;-58
2023/03/31 02:43:48;;;;;;;;;;;;;;;;;;1039079;28;2396;-57
2023/03/31 02:44:19;;;;;;;;;;;;;;;;;;1037132;28;4019;-56
2023/03/31 02:44:49;;;;;;;;;;;;;;;;;;1038014;28;1949;-56
2023/03/31 02:45:39;;;;;;;;;;;;;;;;;;1038331;28;4140;-55
2023/03/31 02:46:10;;;;;;;;;;;;;;;;;;1037615;28;4067;-55
2023/03/31 02:46:40;;;;;;;;;;;;;;;;;;1039386;28;1587;-55
2023/03/31 02:47:12;;;;;;;;;;;;;;;;;;1035672;28;4052;-55
2023/03/31 02:47:42;;;;;;;;;;;;;;;;;;1039021;28;1652;-56
2023/03/31 02:48:16;;;;;;;;;;;;;;;;;;1038385;28;3867;-54
2023/03/31 02:48:48;;;;;;;;;;;;;;;;;;1038935;28;2779;-56
2023/03/31 02:49:20;;;;;;;;;;;;;;;;;;1036721;28;4207;-55
2023/03/31 02:49:52;;;;;;;;;;;;;;;;;;1039523;28;1746;-53
2023/03/31 02:50:25;;;;;;;;;;;;;;;;;;1038672;28;4050;-56
2023/03/31 02:51:00;;;;;;;;;;;;;;;;;;1037000;28;2432;-52
2023/03/31 02:51:40;;;;;;;;;;;;;;;;;;1036620;28;3805;-58
2023/03/31 02:52:19;;;;;;;;;;;;;;;;;;1036585;28;3938;-58
2023/03/31 02:53:16;;;;;;;;;;;;;;;;;;1037961;28;2647;-56
2023/03/31 02:53:58;;;;;;;;;;;;;;;;;;1035337;28;3980;-54
2023/03/31 02:54:29;;;;;;;;;;;;;;;;;;1037775;28;3829;-57
2023/03/31 02:55:09;;;;;;;;;;;;;;;;;;1038741;28;1719;-55
2023/03/31 02:56:03;;;;;;;;;;;;;;;;;;1038224;28;3788;-59
2023/03/31 02:56:54;;;;;;;;;;;;;;;;;;1038567;28;3907;-55
2023/03/31 02:57:27;;;;;;;;;;;;;;;;;;1036544;28;4205;-56
2023/03/31 02:58:12;;;;;;;;;;;;;;;;;;1036963;28;2632;-58
2023/03/31 02:58:53;;;;;;;;;;;;;;;;;;1037890;28;3937;-57
2023/03/31 02:59:31;;;;;;;;;;;;;;;;;;1037624;28;4034;-59
2023/03/31 03:00:13;;;;;;;;;;;;;;;;;;1038741;28;2572;-57
2023/03/31 03:01:02;;;;;;;;;;;;;;;;;;1034628;28;3647;-60
2023/03/31 03:01:32;;;;;;;;;;;;;;;;;;1034297;28;3777;-59
2023/03/31 03:02:07;;;;;;;;;;;;;;;;;;1034594;28;2835;-57
2023/03/31 03:02:56;;;;;;;;;;;;;;;;;;1032434;28;3569;-54
2023/03/31 03:03:30;;;;;;;;;;;;;;;;;;1033814;28;4077;-58
2023/03/31 03:04:12;;;;;;;;;;;;;;;;;;1035360;28;1347;-52
2023/03/31 03:04:48;;;;;;;;;;;;;;;;;;1031384;28;3857;-54
2023/03/31 03:05:28;;;;;;;;;;;;;;;;;;1034523;28;3865;-55
2023/03/31 03:06:04;;;;;;;;;;;;;;;;;;1037849;28;1644;-58
2023/03/31 03:06:38;;;;;;;;;;;;;;;;;;1036110;28;3829;-55
2023/03/31 03:07:25;;;;;;;;;;;;;;;;;;1037769;28;4080;-56
2023/03/31 03:08:04;;;;;;;;;;;;;;;;;;1033268;28;2386;-57
2023/03/31 03:08:37;;;;;;;;;;;;;;;;;;1031679;28;3675;-56
2023/03/31 03:09:08;;;;;;;;;;;;;;;;;;1032010;28;4034;-58
2023/03/31 03:09:41;;;;;;;;;;;;;;;;;;1036128;28;1699;-55
2023/03/31 03:10:25;;;;;;;;;;;;;;;;;;1033655;28;3904;-57
2023/03/31 03:10:56;;;;;;;;;;;;;;;;;;1033609;28;2089;-55
2023/03/31 03:11:38;;;;;;;;;;;;;;;;;;1030875;28;4438;-56
2023/03/31 03:12:26;;;;;;;;;;;;;;;;;;1032779;28;4099;-59
2023/03/31 03:13:04;;;;;;;;;;;;;;;;;;1033721;28;2811;-58
2023/03/31 03:13:40;;;;;;;;;;;;;;;;;;1033121;28;3827;-54
2023/03/31 03:14:16;;;;;;;;;;;;;;;;;;1034848;28;4081;-56
2023/03/31 03:15:09;;;;;;;;;;;;;;;;;;1034694;28;2588;-55
2023/03/31 03:15:45;;;;;;;;;;;;;;;;;;1034365;28;4032;-54
2023/03/31 03:16:34;;;;;;;;;;;;;;;;;;1036442;28;4088;-55
2023/03/31 03:17:10;;;;;;;;;;;;;;;;;;1035184;28;4141;-54
2023/03/31 03:17:42;;;;;;;;;;;;;;;;;;1034841;28;2790;-53
2023/03/31 03:18:13;;;;;;;;;;;;;;;;;;1035439;28;3961;-55
2023/03/31 03:18:44;;;;;;;;;;;;;;;;;;1034762;28;2724;-54
2023/03/31 03:19:19;;;;;;;;;;;;;;;;;;1033651;28;3915;-55
2023/03/31 03:19:51;;;;;;;;;;;;;;;;;;1034886;28;2525;-52
2023/03/31 03:20:22;;;;;;;;;;;;;;;;;;1035052;28;3885;-54
2023/03/31 03:20:52;;;;;;;;;;;;;;;;;;1036354;28;1750;-54
2023/03/31 03:21:23;;;;;;;;;;;;;;;;;;1035195;28;3975;-55
2023/03/31 03:21:53;;;;;;;;;;;;;;;;;;1034837;28;2866;-56
2023/03/31 03:22:23;;;;;;;;;;;;;;;;;;1032240;28;4071;-56
2023/03/31 03:22:54;;;;;;;;;;;;;;;;;;1035138;28;1844;-56
2023/03/31 03:23:24;;;;;;;;;;;;;;;;;;1035403;28;4090;-58
2023/03/31 03:23:55;;;;;;;;;;;;;;;;;;1035212;28;2960;-54
2023/03/31 03:24:28;;;;;;;;;;;;;;;;;;1035076;28;3931;-56
2023/03/31 03:24:58;;;;;;;;;;;;;;;;;;1035050;28;2788;-58
2023/03/31 03:25:29;;;;;;;;;;;;;;;;;;1035669;28;4005;-57
2023/03/31 03:25:59;;;;;;;;;;;;;;;;;;1036471;28;1713;-61
2023/03/31 03:26:34;;;;;;;;;;;;;;;;;;1037067;28;4105;-53
2023/03/31 03:27:04;;;;;;;;;;;;;;;;;;1035897;28;3811;-52
2023/03/31 03:27:34;;;;;;;;;;;;;;;;;;1033105;28;2826;-56
2023/03/31 03:28:06;;;;;;;;;;;;;;;;;;1035285;28;3887;-54
2023/03/31 03:28:36;;;;;;;;;;;;;;;;;;1036797;28;1637;-58
2023/03/31 03:29:07;;;;;;;;;;;;;;;;;;1034043;28;3795;-55
2023/03/31 03:29:37;;;;;;;;;;;;;;;;;;1036092;28;3127;-53
2023/03/31 03:30:08;;;;;;;;;;;;;;;;;;1034316;28;4071;-55
2023/03/31 03:30:38;;;;;;;;;;;;;;;;;;1031076;28;2722;-54
2023/03/31 03:31:09;;;;;;;;;;;;;;;;;;1030739;28;3883;-57
2023/03/31 03:31:39;;;;;;;;;;;;;;;;;;1036234;28;1694;-55
2023/03/31 03:32:10;;;;;;;;;;;;;;;;;;1034851;28;4078;-55
2023/03/31 03:32:40;;;;;;;;;;;;;;;;;;1036377;28;2245;-59
2023/03/31 03:33:15;;;;;;;;;;;;;;;;;;1037727;28;3929;-54
2023/03/31 03:33:46;;;;;;;;;;;;;;;;;;1036264;28;2263;-57
2023/03/31 03:34:18;;;;;;;;;;;;;;;;;;1035275;28;3895;-53
2023/03/31 03:34:49;;;;;;;;;;;;;;;;;;1036712;28;1591;-55
2023/03/31 03:35:19;;;;;;;;;;;;;;;;;;1034424;28;4095;-55
2023/03/31 03:35:49;;;;;;;;;;;;;;;;;;1036006;28;2673;-52
2023/03/31 03:36:20;;;;;;;;;;;;;;;;;;1035123;28;4047;-56
2023/03/31 03:36:50;;;;;;;;;;;;;;;;;;1035952;28;1652;-58
2023/03/31 03:37:21;;;;;;;;;;;;;;;;;;1034564;28;3973;-57
2023/03/31 03:37:51;;;;;;;;;;;;;;;;;;1035633;28;1950;-54
2023/03/31 03:38:21;;;;;;;;;;;;;;;;;;1036004;28;3785;-56
2023/03/31 03:38:52;;;;;;;;;;;;;;;;;;1036743;28;1787;-54
2023/03/31 03:39:22;;;;;;;;;;;;;;;;;;1033952;28;4073;-58
2023/03/31 03:39:52;;;;;;;;;;;;;;;;;;1035740;28;3030;-57
2023/03/31 03:40:22;;;;;;;;;;;;;;;;;;1035758;28;3783;-55
2023/03/31 03:40:53;;;;;;;;;;;;;;;;;;1034609;28;2058;-57
2023/03/31 03:41:23;;;;;;;;;;;;;;;;;;1035807;28;3760;-51
2023/03/31 03:41:53;;;;;;;;;;;;;;;;;;1035986;28;1591;-55
2023/03/31 03:42:24;;;;;;;;;;;;;;;;;;1035712;28;4004;-54
2023/03/31 03:42:55;;;;;;;;;;;;;;;;;;1035422;28;2825;-54
2023/03/31 03:43:25;;;;;;;;;;;;;;;;;;1034596;28;4016;-55
2023/03/31 03:43:55;;;;;;;;;;;;;;;;;;1033653;28;3034;-54
2023/03/31 03:44:25;;;;;;;;;;;;;;;;;;1035834;28;3762;-56
2023/03/31 03:44:56;;;;;;;;;;;;;;;;;;1034434;28;2797;-54
2023/03/31 03:45:26;;;;;;;;;;;;;;;;;;1033399;28;4073;-55
2023/03/31 03:45:56;;;;;;;;;;;;;;;;;;1036678;28;1728;-57
2023/03/31 03:46:27;;;;;;;;;;;;;;;;;;1030805;28;3971;-55
2023/03/31 03:46:57;;;;;;;;;;;;;;;;;;1035915;28;2704;-57
2023/03/31 03:47:27;;;;;;;;;;;;;;;;;;1035012;28;3890;-53
2023/03/31 03:47:57;;;;;;;;;;;;;;;;;;1035860;28;1821;-54
2023/03/31 03:48:28;;;;;;;;;;;;;;;;;;1033175;28;4175;-55
2023/03/31 03:48:58;;;;;;;;;;;;;;;;;;1035956;28;2799;-58
2023/03/31 03:49:29;;;;;;;;;;;;;;;;;;1033252;28;3798;-55
2023/03/31 03:49:59;;;;;;;;;;;;;;;;;;1035732;28;1970;-55
2023/03/31 03:50:29;;;;;;;;;;;;;;;;;;1033737;28;3968;-56
2023/03/31 03:51:00;;;;;;;;;;;;;;;;;;1033628;28;2974;-55
2023/03/31 03:51:30;;;;;;;;;;;;;;;;;;1035992;28;4031;-53
2023/03/31 03:52:00;;;;;;;;;;;;;;;;;;1036380;28;1922;-56
2023/03/31 03:52:30;;;;;;;;;;;;;;;;;;1035524;28;4037;-58
2023/03/31 03:53:01;;;;;;;;;;;;;;;;;;1033259;28;2974;-54
2023/03/31 03:53:31;;;;;;;;;;;;;;;;;;1034050;28;3885;-57
2023/03/31 03:54:01;;;;;;;;;;;;;;;;;;1034865;28;1827;-58
2023/03/31 03:54:32;;;;;;;;;;;;;;;;;;1036348;28;3905;-57
2023/03/31 03:55:02;;;;;;;;;;;;;;;;;;1033545;28;2788;-54
2023/03/31 03:55:34;;;;;;;;;;;;;;;;;;1035996;28;4250;-52
2023/03/31 03:56:04;;;;;;;;;;;;;;;;;;1035744;28;4138;-56
2023/03/31 03:56:35;;;;;;;;;;;;;;;;;;1040801;28;1754;-57
2023/03/31 03:57:06;;;;;;;;;;;;;;;;;;1039679;28;3958;-57